Time;durP1;ratioP1;P1;durP2;ratioP2;P2;SDS_P1;SDS_P2;PMS_P1;PMS_P2;Temp;Humidity;BMP_temperature;BMP_pressure;BME280_temperature;BME280_humidity;BME280_pressure;Samples;Min_cycle;Max_cycle;Signal;HPM_P1;HPM_P2
2022/11/28 00:01:09;;;;;;;10.30;5.93;;;5.60;99.90;;;;;;4993368;28;20459;-84
2022/11/28 00:03:34;;;;;;;10.20;5.90;;;5.60;99.90;;;;;;4976634;28;20818;-84
2022/11/28 00:06:04;;;;;;;9.10;4.77;;;5.60;99.90;;;;;;4997273;28;20427;-83
2022/11/28 00:08:31;;;;;;;8.70;4.23;;;5.60;99.90;;;;;;4996659;28;20283;-83
2022/11/28 00:10:57;;;;;;;6.50;3.43;;;5.60;99.90;;;;;;4997168;28;20744;-83
2022/11/28 00:13:22;;;;;;;14.20;6.43;;;5.60;99.90;;;;;;4979724;28;20408;-85
2022/11/28 00:16:08;;;;;;;8.80;6.10;;;5.60;99.90;;;;;;4997105;28;20283;-84
2022/11/28 00:18:34;;;;;;;10.70;4.30;;;5.60;99.90;;;;;;4979586;28;20718;-84
2022/11/28 00:21:05;;;;;;;11.70;5.03;;;5.50;99.90;;;;;;4979625;28;20550;-83
2022/11/28 00:23:32;;;;;;;9.53;4.60;;;5.50;99.90;;;;;;4979651;28;20515;-85
2022/11/28 00:26:03;;;;;;;9.03;4.30;;;5.50;99.90;;;;;;4998244;28;20436;-84
2022/11/28 00:28:28;;;;;;;12.80;5.30;;;5.50;99.90;;;;;;5016559;28;20564;-83
2022/11/28 00:30:54;;;;;;;8.37;4.03;;;5.50;99.90;;;;;;5015603;28;20512;-84
2022/11/28 00:33:20;;;;;;;6.93;4.10;;;5.50;99.90;;;;;;5016493;28;20178;-86
2022/11/28 00:35:46;;;;;;;10.17;4.07;;;5.50;99.90;;;;;;5016509;28;20249;-84
2022/11/28 00:38:11;;;;;;;12.77;4.83;;;5.50;99.90;;;;;;5016011;28;20261;-84
2022/11/28 00:40:36;;;;;;;5.83;4.17;;;5.60;99.90;;;;;;5016530;28;20429;-83
2022/11/28 00:43:02;;;;;;;9.07;3.83;;;5.60;99.90;;;;;;5016638;28;20183;-83
2022/11/28 00:45:27;;;;;;;7.17;4.60;;;5.50;99.90;;;;;;5016544;28;20180;-83
2022/11/28 00:47:53;;;;;;;9.17;4.10;;;5.50;99.90;;;;;;5016595;28;20183;-84
2022/11/28 00:50:18;;;;;;;6.70;4.40;;;5.50;99.90;;;;;;4998458;28;20301;-83
2022/11/28 00:52:44;;;;;;;11.10;3.90;;;5.50;99.90;;;;;;5016571;28;20177;-83
2022/11/28 00:55:09;;;;;;;8.17;4.00;;;5.50;99.90;;;;;;5016238;28;20218;-84
2022/11/28 00:57:35;;;;;;;12.10;5.70;;;5.50;99.90;;;;;;5016317;28;20173;-84
2022/11/28 01:00:00;;;;;;;6.23;3.90;;;5.50;99.90;;;;;;5016392;28;20186;-84
2022/11/28 01:02:26;;;;;;;10.30;5.27;;;5.60;99.90;;;;;;5016247;28;20675;-83
2022/11/28 01:04:52;;;;;;;11.87;4.87;;;5.50;99.90;;;;;;5015959;28;20171;-83
2022/11/28 01:07:17;;;;;;;7.03;4.53;;;5.50;99.90;;;;;;5016249;28;20552;-84
2022/11/28 01:09:43;;;;;;;8.37;4.47;;;5.50;99.90;;;;;;5016514;28;20218;-84
2022/11/28 01:12:08;;;;;;;8.23;5.03;;;5.50;99.90;;;;;;4998456;28;20183;-84
2022/11/28 01:14:34;;;;;;;6.43;3.50;;;5.60;99.90;;;;;;5015710;28;20178;-85
2022/11/28 01:16:59;;;;;;;7.50;4.53;;;5.60;99.90;;;;;;4998497;28;20175;-85
2022/11/28 01:19:25;;;;;;;9.50;3.73;;;5.60;99.90;;;;;;5015681;28;20205;-84
2022/11/28 01:21:50;;;;;;;12.47;4.57;;;5.60;99.90;;;;;;4998367;28;20174;-85
2022/11/28 01:24:16;;;;;;;8.20;5.33;;;5.60;99.90;;;;;;4998389;28;20692;-85
2022/11/28 01:26:42;;;;;;;7.63;4.70;;;5.60;99.90;;;;;;5015925;28;20171;-85
2022/11/28 01:29:07;;;;;;;8.30;4.40;;;5.60;99.90;;;;;;5015788;28;20566;-83
2022/11/28 01:31:33;;;;;;;6.57;3.83;;;5.60;99.90;;;;;;4998315;28;20628;-85
2022/11/28 01:33:59;;;;;;;5.83;3.83;;;5.60;99.90;;;;;;5015440;28;20501;-87
2022/11/28 01:36:25;;;;;;;6.13;3.30;;;5.60;99.90;;;;;;5015818;28;20695;-85
2022/11/28 01:38:51;;;;;;;6.17;3.97;;;5.60;99.90;;;;;;4998042;28;20233;-84
2022/11/28 01:41:20;;;;;;;5.43;3.13;;;5.60;99.90;;;;;;5015278;28;20426;-84
2022/11/28 01:44:11;;;;;;;4.70;2.90;;;5.60;99.90;;;;;;5015607;28;20257;-85
2022/11/28 01:46:37;;;;;;;9.70;4.73;;;5.60;99.90;;;;;;4985103;28;20514;-83
2022/11/28 01:49:12;;;;;;;7.77;3.60;;;5.60;99.90;;;;;;5015055;28;20533;-85
2022/11/28 01:51:41;;;;;;;9.13;4.10;;;5.60;99.90;;;;;;5015502;28;20612;-85
2022/11/28 01:54:07;;;;;;;6.93;3.97;;;5.60;99.90;;;;;;5015225;28;20466;-85
2022/11/28 01:56:47;;;;;;;5.20;3.07;;;5.60;99.90;;;;;;4997876;28;20423;-84
2022/11/28 01:59:14;;;;;;;9.23;4.43;;;5.60;99.90;;;;;;5015354;28;20230;-84
2022/11/28 02:01:41;;;;;;;8.00;4.40;;;5.60;99.90;;;;;;5015244;28;20407;-84
2022/11/28 02:04:08;;;;;;;6.50;4.10;;;5.60;99.90;;;;;;5014848;28;20469;-84
2022/11/28 02:06:34;;;;;;;5.67;3.20;;;5.70;99.90;;;;;;4997497;28;20420;-85
2022/11/28 02:08:59;;;;;;;7.23;3.40;;;5.60;99.90;;;;;;5014961;28;21057;-85
2022/11/28 02:12:05;;;;;;;8.53;5.60;;;5.60;99.90;;;;;;5015081;28;20446;-86
2022/11/28 02:14:48;;;;;;;6.77;3.73;;;5.60;99.90;;;;;;5015014;28;20233;-85
2022/11/28 02:17:39;;;;;;;2.90;2.40;;;5.60;99.90;;;;;;5014990;28;20411;-84
2022/11/28 02:20:35;;;;;;;7.60;3.60;;;5.60;99.90;;;;;;4983282;28;20419;-84
2022/11/28 02:23:14;;;;;;;7.93;3.90;;;5.60;99.90;;;;;;4997136;28;20424;-84
2022/11/28 02:26:20;;;;;;;8.23;3.83;;;5.50;99.90;;;;;;4996687;28;20449;-84
2022/11/28 02:29:07;;;;;;;6.73;3.30;;;5.50;99.90;;;;;;4996920;28;20460;-84
2022/11/28 02:31:53;;;;;;;5.97;4.17;;;5.50;99.90;;;;;;5014721;28;20414;-84
2022/11/28 02:34:39;;;;;;;8.23;3.10;;;5.50;99.90;;;;;;5014270;28;20424;-83
2022/11/28 02:37:11;;;;;;;4.70;3.47;;;5.50;99.90;;;;;;4997091;28;20422;-84
2022/11/28 02:39:59;;;;;;;5.07;2.77;;;5.50;99.90;;;;;;4996781;28;20428;-83
2022/11/28 02:42:32;;;;;;;4.97;3.30;;;5.60;99.90;;;;;;5014553;28;20415;-82
2022/11/28 02:45:06;;;;;;;5.23;3.17;;;5.50;99.90;;;;;;4997038;28;20441;-84
2022/11/28 02:47:37;;;;;;;6.80;3.57;;;5.50;99.90;;;;;;5014408;28;20977;-82
2022/11/28 02:50:37;;;;;;;6.33;3.43;;;5.50;99.90;;;;;;4996616;28;20621;-83
2022/11/28 02:53:08;;;;;;;4.53;3.53;;;5.50;99.90;;;;;;4983992;28;20556;-84
2022/11/28 02:55:38;;;;;;;7.00;3.93;;;5.50;99.90;;;;;;5014145;28;20454;-83
2022/11/28 02:58:03;;;;;;;7.93;3.83;;;5.50;99.90;;;;;;5014247;28;20410;-82
2022/11/28 03:00:35;;;;;;;7.77;4.50;;;5.60;99.90;;;;;;5014144;28;20465;-83
2022/11/28 03:03:45;;;;;;;8.83;4.63;;;5.60;99.90;;;;;;4996228;28;20261;-84
2022/11/28 03:06:26;;;;;;;5.80;3.93;;;5.60;99.90;;;;;;5014078;28;20406;-82
2022/11/28 03:09:18;;;;;;;9.90;3.63;;;5.60;99.90;;;;;;5014006;28;20473;-84
2022/11/28 03:11:53;;;;;;;6.80;2.80;;;5.60;99.90;;;;;;4996446;28;20581;-83
2022/11/28 03:14:47;;;;;;;3.80;2.60;;;5.60;99.90;;;;;;5014000;28;20430;-83
2022/11/28 03:17:53;;;;;;;12.40;4.13;;;5.60;99.90;;;;;;5013885;28;20406;-83
2022/11/28 03:20:30;;;;;;;4.30;3.40;;;5.60;99.90;;;;;;5013969;28;20410;-86
2022/11/28 03:23:05;;;;;;;4.63;3.20;;;5.60;99.90;;;;;;5013768;28;20762;-82
2022/11/28 03:25:40;;;;;;;7.43;3.90;;;5.60;99.90;;;;;;5013796;28;20506;-83
2022/11/28 03:28:23;;;;;;;7.83;4.30;;;5.50;99.90;;;;;;5013733;28;20468;-82
2022/11/28 03:30:57;;;;;;;8.53;4.33;;;5.50;99.90;;;;;;5013684;28;20446;-83
2022/11/28 03:33:26;;;;;;;6.37;3.17;;;5.50;99.90;;;;;;5013290;28;20471;-82
2022/11/28 03:36:00;;;;;;;7.83;4.23;;;5.50;99.90;;;;;;5013531;28;20421;-83
2022/11/28 03:38:38;;;;;;;8.20;3.67;;;5.50;99.90;;;;;;5013574;28;20757;-83
2022/11/28 03:41:10;;;;;;;7.73;3.30;;;5.50;99.90;;;;;;5013578;28;20418;-83
2022/11/28 03:43:41;;;;;;;6.33;3.87;;;5.50;99.90;;;;;;4996122;28;20513;-84
2022/11/28 03:46:12;;;;;;;7.23;3.40;;;5.50;99.90;;;;;;5013601;28;20427;-84
2022/11/28 03:48:42;;;;;;;5.83;3.13;;;5.50;99.90;;;;;;5013454;28;20592;-84
2022/11/28 03:51:15;;;;;;;4.80;3.97;;;5.50;99.90;;;;;;5013446;28;20985;-85
2022/11/28 03:54:06;;;;;;;4.53;2.73;;;5.40;99.90;;;;;;5013528;28;20451;-84
2022/11/28 03:56:40;;;;;;;6.77;3.70;;;5.40;99.90;;;;;;4995854;28;20446;-84
2022/11/28 03:59:12;;;;;;;7.10;3.40;;;5.40;99.90;;;;;;4995826;28;20434;-84
2022/11/28 04:01:55;;;;;;;9.93;4.07;;;5.40;99.90;;;;;;5013432;28;20513;-84
2022/11/28 04:04:40;;;;;;;8.30;2.90;;;5.40;99.90;;;;;;5012966;28;20426;-85
2022/11/28 04:07:26;;;;;;;6.23;3.87;;;5.40;99.90;;;;;;4995882;28;20500;-84
2022/11/28 04:10:22;;;;;;;8.33;3.83;;;5.40;99.90;;;;;;5013220;28;20477;-84
2022/11/28 04:13:24;;;;;;;6.93;3.93;;;5.40;99.90;;;;;;5013324;28;20410;-84
2022/11/28 04:16:12;;;;;;;7.10;4.67;;;5.40;99.90;;;;;;4995802;28;20444;-85
2022/11/28 04:19:08;;;;;;;4.90;3.80;;;5.40;99.90;;;;;;4995286;28;20430;-84
2022/11/28 04:21:40;;;;;;;6.33;4.17;;;5.40;99.90;;;;;;5013212;28;20427;-85
2022/11/28 04:24:11;;;;;;;6.73;4.33;;;5.40;99.90;;;;;;5013357;28;20509;-84
2022/11/28 04:26:43;;;;;;;10.67;4.17;;;5.40;99.90;;;;;;5013616;28;20411;-85
2022/11/28 04:29:11;;;;;;;5.27;4.07;;;5.40;99.90;;;;;;4996153;28;20478;-84
2022/11/28 04:31:40;;;;;;;5.30;3.30;;;5.40;99.90;;;;;;5020592;28;20430;-84
2022/11/28 04:34:09;;;;;;;8.07;4.10;;;5.40;99.90;;;;;;5021557;28;20452;-85
2022/11/28 04:36:38;;;;;;;6.70;3.23;;;5.40;99.90;;;;;;5004316;28;20426;-85
2022/11/28 04:39:11;;;;;;;9.27;4.67;;;5.40;99.90;;;;;;5017209;28;20421;-84
2022/11/28 04:41:48;;;;;;;4.80;2.80;;;5.40;99.90;;;;;;5013150;28;20402;-84
2022/11/28 04:44:26;;;;;;;8.63;4.03;;;5.40;99.90;;;;;;5013264;28;20406;-87
2022/11/28 04:46:54;;;;;;;5.40;3.60;;;5.40;99.90;;;;;;4995300;28;20418;-88
2022/11/28 04:49:21;;;;;;;3.30;1.80;;;5.40;99.90;;;;;;5013528;28;20453;-84
2022/11/28 04:52:08;;;;;;;5.50;4.30;;;5.40;99.90;;;;;;4999258;28;20435;-84
2022/11/28 04:54:49;;;;;;;4.97;3.37;;;5.40;99.90;;;;;;5016607;28;20453;-85
2022/11/28 04:57:40;;;;;;;6.63;3.73;;;5.40;99.90;;;;;;5016623;28;20421;-83
2022/11/28 05:00:12;;;;;;;6.40;3.30;;;5.40;99.90;;;;;;5016634;28;20431;-85
2022/11/28 05:02:40;;;;;;;7.97;4.13;;;5.40;99.90;;;;;;5016159;28;20473;-85
2022/11/28 05:05:12;;;;;;;5.47;3.60;;;5.40;99.90;;;;;;4999052;28;20421;-85
2022/11/28 05:07:37;;;;;;;8.33;4.57;;;5.40;99.90;;;;;;5016503;28;20418;-87
2022/11/28 05:10:04;;;;;;;7.20;4.20;;;5.30;99.90;;;;;;5016534;28;20465;-84
2022/11/28 05:12:29;;;;;;;6.27;2.90;;;5.40;99.90;;;;;;5016346;28;20167;-87
2022/11/28 05:14:55;;;;;;;6.43;3.70;;;5.30;99.90;;;;;;5016629;28;20520;-88
2022/11/28 05:17:20;;;;;;;7.07;3.93;;;5.40;99.90;;;;;;5016614;28;20187;-91
2022/11/28 05:19:46;;;;;;;5.77;2.83;;;5.30;99.90;;;;;;5017112;28;20258;-88
2022/11/28 05:22:11;;;;;;;7.47;4.43;;;5.30;99.90;;;;;;5016688;28;20175;-91
2022/11/28 05:24:37;;;;;;;5.50;3.10;;;5.20;99.90;;;;;;5016730;28;20655;-87
2022/11/28 05:27:02;;;;;;;9.93;4.73;;;5.30;99.90;;;;;;5016567;28;20170;-91
2022/11/28 05:29:28;;;;;;;9.83;4.67;;;5.30;99.90;;;;;;5016514;28;20238;-83
2022/11/28 05:31:54;;;;;;;5.63;3.30;;;5.20;99.90;;;;;;5016145;28;20171;-89
2022/11/28 05:34:19;;;;;;;7.07;4.37;;;5.20;99.90;;;;;;5015815;28;20182;-83
2022/11/28 05:36:44;;;;;;;5.47;3.43;;;5.20;99.90;;;;;;5016008;28;20709;-86
2022/11/28 05:39:10;;;;;;;9.53;4.17;;;5.20;99.90;;;;;;5015879;28;20210;-85
2022/11/28 05:41:35;;;;;;;4.57;3.60;;;5.20;99.90;;;;;;5015802;28;20659;-87
2022/11/28 05:44:01;;;;;;;8.30;2.93;;;5.20;99.90;;;;;;5015803;28;20173;-86
2022/11/28 05:46:27;;;;;;;7.13;3.83;;;5.10;99.90;;;;;;5015657;28;20171;-85
2022/11/28 05:48:53;;;;;;;10.20;3.10;;;5.10;99.90;;;;;;5015373;28;20526;-85
2022/11/28 05:51:19;;;;;;;6.73;4.00;;;5.10;99.90;;;;;;5015774;28;20434;-86
2022/11/28 05:53:44;;;;;;;5.37;3.23;;;5.10;99.90;;;;;;5015563;28;20564;-83
2022/11/28 05:56:15;;;;;;;8.60;3.90;;;5.10;99.90;;;;;;5015412;28;20765;-84
2022/11/28 05:58:41;;;;;;;8.93;4.57;;;5.10;99.90;;;;;;5015535;28;20174;-85
2022/11/28 06:01:19;;;;;;;7.17;4.40;;;5.10;99.90;;;;;;5014450;28;20853;-88
2022/11/28 06:03:45;;;;;;;7.03;4.17;;;5.10;99.90;;;;;;5015080;28;20580;-84
2022/11/28 06:06:13;;;;;;;7.20;4.53;;;5.20;99.90;;;;;;5015355;28;20438;-84
2022/11/28 06:08:39;;;;;;;6.60;3.87;;;5.20;99.90;;;;;;5015195;28;20183;-84
2022/11/28 06:11:05;;;;;;;6.77;3.17;;;5.20;99.90;;;;;;4997716;28;20428;-84
2022/11/28 06:13:30;;;;;;;8.17;4.10;;;5.20;99.90;;;;;;5015147;28;20941;-86
2022/11/28 06:15:56;;;;;;;7.50;3.80;;;5.20;99.90;;;;;;5015139;28;20707;-86
2022/11/28 06:18:21;;;;;;;8.83;5.30;;;5.20;99.90;;;;;;4997174;28;20628;-84
2022/11/28 06:20:47;;;;;;;7.90;4.70;;;5.20;99.90;;;;;;5015134;28;20206;-84
2022/11/28 06:23:12;;;;;;;8.57;3.90;;;5.20;99.90;;;;;;5014886;28;20167;-85
2022/11/28 06:25:38;;;;;;;7.30;4.83;;;5.20;99.90;;;;;;5014922;28;20173;-84
2022/11/28 06:28:03;;;;;;;8.07;4.70;;;5.20;99.90;;;;;;5014777;28;20225;-84
2022/11/28 06:30:29;;;;;;;7.40;4.97;;;5.20;99.90;;;;;;5014733;28;20685;-84
2022/11/28 06:32:54;;;;;;;9.10;4.50;;;5.20;99.90;;;;;;5014319;28;20482;-83
2022/11/28 06:35:19;;;;;;;7.60;4.10;;;5.20;99.90;;;;;;4997160;28;20171;-84
2022/11/28 06:37:45;;;;;;;6.80;4.67;;;5.20;99.90;;;;;;5014829;28;20206;-85
2022/11/28 06:40:11;;;;;;;8.50;4.50;;;5.20;99.90;;;;;;5014558;28;20175;-84
2022/11/28 06:42:36;;;;;;;8.33;5.23;;;5.20;99.90;;;;;;4997175;28;20260;-85
2022/11/28 06:45:03;;;;;;;7.97;5.20;;;5.20;99.90;;;;;;5015241;28;20218;-84
2022/11/28 06:47:28;;;;;;;10.00;4.57;;;5.20;99.90;;;;;;5014550;28;20578;-85
2022/11/28 06:49:54;;;;;;;6.90;4.00;;;5.20;99.90;;;;;;5014374;28;20465;-83
2022/11/28 06:52:20;;;;;;;11.87;4.80;;;5.20;99.90;;;;;;5014444;28;20388;-87
2022/11/28 06:54:46;;;;;;;8.87;3.77;;;5.20;99.90;;;;;;5014115;28;20535;-87
2022/11/28 06:57:11;;;;;;;7.90;3.97;;;5.20;99.90;;;;;;5014820;28;20169;-88
2022/11/28 06:59:37;;;;;;;8.10;5.10;;;5.20;99.90;;;;;;5014520;28;20179;-82
2022/11/28 07:02:02;;;;;;;8.97;5.50;;;5.10;99.90;;;;;;4996136;28;20233;-84
2022/11/28 07:04:28;;;;;;;7.83;5.43;;;5.10;99.90;;;;;;5013964;28;20175;-83
2022/11/28 07:06:53;;;;;;;9.07;4.87;;;5.20;99.90;;;;;;5013912;28;20632;-87
2022/11/28 07:09:22;;;;;;;8.60;4.90;;;5.10;99.90;;;;;;5013747;28;20271;-87
2022/11/28 07:11:47;;;;;;;8.33;3.63;;;5.10;99.90;;;;;;4995706;28;20534;-86
2022/11/28 07:14:13;;;;;;;10.90;5.03;;;5.10;99.90;;;;;;5013780;28;20434;-86
2022/11/28 07:16:38;;;;;;;7.30;4.63;;;5.10;99.90;;;;;;4996201;28;20755;-86
2022/11/28 07:19:04;;;;;;;8.67;4.73;;;5.10;99.90;;;;;;5013487;28;20170;-87
2022/11/28 07:21:30;;;;;;;7.00;4.97;;;5.10;99.90;;;;;;5006128;28;20192;-86
2022/11/28 07:23:58;;;;;;;8.00;5.07;;;5.10;99.90;;;;;;4976554;28;20325;-86
2022/11/28 07:26:24;;;;;;;7.77;4.93;;;5.10;99.90;;;;;;4994026;28;20424;-85
2022/11/28 07:28:50;;;;;;;7.10;3.53;;;5.10;99.90;;;;;;4993941;28;20454;-87
2022/11/28 07:31:21;;;;;;;9.73;5.93;;;5.10;99.90;;;;;;4993996;28;20437;-86
2022/11/28 07:33:49;;;;;;;12.37;5.77;;;5.10;99.90;;;;;;4993758;28;20415;-85
2022/11/28 07:36:23;;;;;;;8.17;4.30;;;5.10;99.90;;;;;;4994392;28;20419;-86
2022/11/28 07:38:51;;;;;;;8.90;4.60;;;5.10;99.90;;;;;;4994143;28;20762;-84
2022/11/28 07:41:17;;;;;;;10.20;5.57;;;5.10;99.90;;;;;;4993873;28;20407;-85
2022/11/28 07:43:44;;;;;;;10.43;5.57;;;5.10;99.90;;;;;;4993960;28;20943;-86
2022/11/28 07:46:13;;;;;;;11.77;5.50;;;5.20;99.90;;;;;;4993731;28;20827;-87
2022/11/28 07:48:39;;;;;;;10.10;5.23;;;5.20;99.90;;;;;;4993278;28;20415;-85
2022/11/28 07:51:08;;;;;;;9.07;5.40;;;5.20;99.90;;;;;;4993848;28;20909;-88
2022/11/28 07:53:34;;;;;;;9.10;6.77;;;5.20;99.90;;;;;;4993979;28;20923;-84
2022/11/28 07:56:04;;;;;;;10.63;5.17;;;5.20;99.90;;;;;;4993853;28;20528;-86
2022/11/28 07:58:30;;;;;;;8.57;5.67;;;5.20;99.90;;;;;;4993639;28;20414;-87
2022/11/28 08:00:55;;;;;;;13.63;6.63;;;5.20;99.90;;;;;;4993942;28;20970;-89
2022/11/28 08:03:21;;;;;;;11.37;5.87;;;5.30;99.90;;;;;;4993351;28;20180;-85
2022/11/28 08:05:48;;;;;;;10.13;5.67;;;5.30;99.90;;;;;;4994263;28;20186;-86
2022/11/28 08:08:15;;;;;;;10.47;5.90;;;5.30;99.90;;;;;;4993976;28;20226;-85
2022/11/28 08:10:41;;;;;;;8.80;4.37;;;5.30;99.90;;;;;;4993588;28;20466;-84
2022/11/28 08:13:06;;;;;;;9.80;5.73;;;5.30;99.90;;;;;;4993569;28;20418;-83
2022/11/28 08:15:32;;;;;;;12.73;7.00;;;5.40;99.90;;;;;;4993668;28;20212;-83
2022/11/28 08:17:57;;;;;;;10.80;7.00;;;5.40;99.90;;;;;;4993033;28;20172;-84
2022/11/28 08:20:23;;;;;;;10.83;6.10;;;5.40;99.90;;;;;;4975944;28;20199;-84
2022/11/28 08:22:48;;;;;;;10.80;5.87;;;5.40;99.90;;;;;;4993410;28;20172;-86
2022/11/28 08:25:14;;;;;;;9.87;6.20;;;5.40;99.90;;;;;;4995842;28;20194;-86
2022/11/28 08:27:39;;;;;;;8.43;4.60;;;5.40;99.90;;;;;;4997416;28;20171;-83
2022/11/28 08:30:06;;;;;;;11.37;6.10;;;5.40;99.90;;;;;;4979712;28;20215;-86
2022/11/28 08:32:31;;;;;;;15.37;7.13;;;5.40;99.90;;;;;;4997023;28;20172;-82
2022/11/28 08:34:57;;;;;;;8.67;5.20;;;5.50;99.90;;;;;;4997083;28;20478;-83
2022/11/28 08:37:22;;;;;;;10.50;6.10;;;5.60;99.90;;;;;;4997030;28;20310;-87
2022/11/28 08:39:48;;;;;;;12.33;5.87;;;5.50;99.90;;;;;;4997054;28;20171;-83
2022/11/28 08:42:13;;;;;;;9.10;5.57;;;5.60;99.90;;;;;;4996913;28;20170;-84
2022/11/28 08:44:39;;;;;;;8.33;5.57;;;5.50;99.90;;;;;;4996988;28;20509;-85
2022/11/28 08:47:04;;;;;;;12.63;7.53;;;5.60;99.90;;;;;;4996608;28;20165;-83
2022/11/28 08:49:30;;;;;;;10.80;6.90;;;5.60;99.90;;;;;;4996801;28;20998;-87
2022/11/28 08:51:55;;;;;;;12.47;5.30;;;5.60;99.90;;;;;;4996984;28;20226;-85
2022/11/28 08:54:21;;;;;;;8.80;5.90;;;5.60;99.90;;;;;;4996741;28;20170;-86
2022/11/28 08:56:47;;;;;;;11.67;6.80;;;5.60;99.90;;;;;;4996850;28;20262;-85
2022/11/28 08:59:12;;;;;;;10.00;6.20;;;5.60;99.90;;;;;;4996604;28;20178;-83
2022/11/28 09:01:38;;;;;;;11.30;6.07;;;5.60;99.90;;;;;;4996149;28;20637;-82
2022/11/28 09:04:04;;;;;;;9.20;5.13;;;5.60;99.90;;;;;;4996687;28;20623;-82
2022/11/28 09:06:29;;;;;;;10.30;6.57;;;5.60;99.90;;;;;;4996466;28;20282;-83
2022/11/28 09:08:55;;;;;;;11.80;5.80;;;5.70;99.90;;;;;;5000662;28;20219;-84
2022/11/28 09:11:21;;;;;;;11.40;5.03;;;5.70;99.90;;;;;;5016004;28;20251;-83
2022/11/28 09:13:47;;;;;;;12.93;6.50;;;5.70;99.90;;;;;;5015994;28;20179;-83
2022/11/28 09:16:13;;;;;;;13.10;8.00;;;5.70;99.90;;;;;;5015845;28;20413;-83
2022/11/28 09:18:38;;;;;;;9.17;4.97;;;5.70;99.90;;;;;;5015563;28;20180;-84
2022/11/28 09:21:08;;;;;;;10.90;6.67;;;5.70;99.90;;;;;;5015799;28;20780;-83
2022/11/28 09:23:37;;;;;;;10.57;7.17;;;5.70;99.90;;;;;;5015795;28;20183;-83
2022/11/28 09:26:10;;;;;;;9.90;5.63;;;5.70;99.90;;;;;;5015703;28;20402;-84
2022/11/28 09:28:36;;;;;;;13.00;6.20;;;5.60;99.90;;;;;;5015689;28;20416;-87
2022/11/28 09:31:04;;;;;;;7.60;5.03;;;5.60;99.90;;;;;;5015642;28;21028;-85
2022/11/28 09:33:30;;;;;;;9.77;6.30;;;5.70;99.90;;;;;;5015652;28;20483;-82
2022/11/28 09:35:57;;;;;;;8.07;5.43;;;5.70;99.90;;;;;;5015526;28;20420;-85
2022/11/28 09:38:23;;;;;;;8.60;5.50;;;5.70;99.90;;;;;;4998268;28;20944;-85
2022/11/28 09:40:50;;;;;;;8.80;6.20;;;5.70;99.90;;;;;;5015521;28;20971;-84
2022/11/28 09:43:29;;;;;;;14.80;6.87;;;5.70;99.90;;;;;;4997690;28;20424;-83
2022/11/28 09:45:57;;;;;;;13.70;7.03;;;5.70;99.90;;;;;;5015432;28;20864;-83
2022/11/28 09:48:33;;;;;;;10.23;5.53;;;5.70;99.90;;;;;;4997388;28;20424;-83
2022/11/28 09:51:24;;;;;;;12.43;6.20;;;5.70;99.90;;;;;;5015273;28;20419;-83
2022/11/28 09:54:11;;;;;;;7.63;5.60;;;5.80;99.90;;;;;;5015200;28;20417;-85
2022/11/28 09:56:36;;;;;;;8.50;4.93;;;5.80;99.90;;;;;;5015208;28;20418;-84
2022/11/28 09:59:02;;;;;;;12.77;6.17;;;5.80;99.90;;;;;;5015324;28;20419;-85
2022/11/28 10:01:39;;;;;;;10.87;5.87;;;5.70;91.90;;;;;;5014880;28;20199;-88
2022/11/28 10:04:17;;;;;;;9.17;6.40;;;5.70;99.90;;;;;;4997887;28;20456;-84
2022/11/28 10:07:09;;;;;;;10.70;5.67;;;5.70;85.60;;;;;;5015201;28;20852;-83
2022/11/28 10:09:41;;;;;;;13.80;6.10;;;5.80;94.70;;;;;;5014827;28;20469;-83
2022/11/28 10:12:42;;;;;;;11.67;5.83;;;5.80;99.90;;;;;;5014931;28;20453;-86
2022/11/28 10:15:39;;;;;;;11.20;6.07;;;5.80;99.90;;;;;;5015045;28;20508;-87
2022/11/28 10:18:26;;;;;;;6.60;4.50;;;5.70;93.40;;;;;;5014701;28;20488;-85
2022/11/28 10:20:57;;;;;;;9.67;5.43;;;5.70;79.00;;;;;;5014771;28;20413;-83
2022/11/28 10:23:33;;;;;;;9.77;5.83;;;5.70;96.00;;;;;;5014757;28;20851;-85
2022/11/28 10:26:15;;;;;;;10.00;6.40;;;5.70;99.90;;;;;;5014667;28;20402;-85
2022/11/28 10:28:45;;;;;;;9.00;4.93;;;5.70;99.90;;;;;;5014569;28;20411;-86
2022/11/28 10:31:34;;;;;;;8.63;4.30;;;5.70;90.00;;;;;;5014456;28;21061;-83
2022/11/28 10:34:42;;;;;;;8.87;6.37;;;5.70;99.90;;;;;;5014451;28;20499;-82
2022/11/28 10:37:25;;;;;;;11.50;6.23;;;5.70;81.60;;;;;;5014741;28;20943;-82
2022/11/28 10:39:50;;;;;;;7.13;4.10;;;5.60;98.70;;;;;;5014259;28;20927;-82
2022/11/28 10:42:41;;;;;;;7.23;5.83;;;5.70;99.90;;;;;;5014173;28;20423;-82
2022/11/28 10:45:26;;;;;;;9.90;4.70;;;5.70;94.80;;;;;;4996663;28;20172;-82
2022/11/28 10:48:16;;;;;;;8.27;4.43;;;5.70;99.90;;;;;;4999448;28;20442;-81
2022/11/28 10:51:18;;;;;;;8.93;6.07;;;5.70;99.90;;;;;;4973473;28;21013;-83
2022/11/28 10:54:03;;;;;;;9.50;5.10;;;5.70;96.40;;;;;;4974788;28;20437;-83
2022/11/28 10:56:51;;;;;;;5.03;3.70;;;5.70;99.90;;;;;;4974485;28;20516;-85
2022/11/28 10:59:29;;;;;;;11.10;5.43;;;5.60;74.00;;;;;;4974934;28;20445;-84
2022/11/28 11:01:56;;;;;;;11.47;5.63;;;5.60;99.90;;;;;;4974403;28;20487;-83
2022/11/28 11:04:25;;;;;;;7.47;4.30;;;5.70;99.70;;;;;;4974795;28;20421;-82
2022/11/28 11:07:12;;;;;;;9.57;5.67;;;5.70;87.60;;;;;;4974920;28;20787;-84
2022/11/28 11:09:38;;;;;;;10.83;5.17;;;5.60;86.00;;;;;;4986304;28;20461;-83
2022/11/28 11:12:11;;;;;;;7.50;5.33;;;5.70;99.90;;;;;;4990153;28;20434;-83
2022/11/28 11:14:54;;;;;;;7.70;4.10;;;5.60;83.70;;;;;;4988556;28;20705;-86
2022/11/28 11:17:32;;;;;;;7.07;4.67;;;5.70;83.20;;;;;;4976967;28;20830;-88
2022/11/28 11:19:59;;;;;;;7.93;4.60;;;5.70;87.90;;;;;;4976939;28;20531;-83
2022/11/28 11:22:30;;;;;;;8.63;5.40;;;5.70;90.10;;;;;;4994232;28;20906;-85
2022/11/28 11:25:11;;;;;;;8.03;4.83;;;5.70;52.30;;;;;;4975661;28;20539;-85
2022/11/28 11:27:59;;;;;;;9.67;4.70;;;5.60;77.20;;;;;;4994563;28;20409;-84
2022/11/28 11:30:41;;;;;;;11.33;6.47;;;5.60;99.90;;;;;;4975885;28;20483;-84
2022/11/28 11:33:14;;;;;;;7.33;4.10;;;5.60;99.90;;;;;;4993427;28;20773;-84
2022/11/28 11:35:46;;;;;;;7.90;4.50;;;5.60;99.90;;;;;;4992648;28;20533;-82
2022/11/28 11:38:21;;;;;;;9.73;5.03;;;5.60;99.90;;;;;;4992503;28;20409;-85
2022/11/28 11:40:48;;;;;;;9.83;5.10;;;5.60;99.90;;;;;;4992451;28;20544;-84
2022/11/28 11:43:31;;;;;;;8.20;4.67;;;5.60;99.90;;;;;;4992002;28;20423;-85
2022/11/28 11:46:06;;;;;;;9.17;5.60;;;5.60;99.90;;;;;;4986236;28;20474;-85
2022/11/28 11:48:46;;;;;;;7.80;5.70;;;5.60;99.90;;;;;;4992228;28;20426;-84
2022/11/28 11:51:20;;;;;;;9.50;4.93;;;5.60;99.90;;;;;;4993903;28;20437;-84
2022/11/28 11:53:46;;;;;;;8.03;3.77;;;5.60;99.90;;;;;;4993945;28;20457;-86
2022/11/28 11:56:13;;;;;;;7.10;4.20;;;5.50;99.90;;;;;;4993862;28;20444;-85
2022/11/28 11:58:43;;;;;;;9.47;5.10;;;5.50;99.90;;;;;;4993381;28;20220;-84
2022/11/28 12:01:12;;;;;;;8.90;6.20;;;5.50;99.90;;;;;;4976268;28;20411;-86
2022/11/28 12:03:52;;;;;;;9.20;5.17;;;5.50;99.90;;;;;;4975949;28;20940;-83
2022/11/28 12:06:29;;;;;;;8.73;4.73;;;5.40;99.90;;;;;;4993342;28;21001;-84
2022/11/28 12:09:26;;;;;;;7.60;4.83;;;5.40;99.90;;;;;;4993450;28;20888;-85
2022/11/28 12:11:59;;;;;;;7.43;4.30;;;5.40;99.90;;;;;;4993608;28;20463;-85
2022/11/28 12:14:31;;;;;;;9.47;4.43;;;5.40;99.90;;;;;;4993463;28;20482;-85
2022/11/28 12:17:16;;;;;;;10.33;5.10;;;5.40;99.90;;;;;;4992904;28;20425;-84
2022/11/28 12:20:09;;;;;;;9.40;5.07;;;5.40;99.90;;;;;;4993428;28;20499;-84
2022/11/28 12:22:52;;;;;;;11.83;5.60;;;5.40;99.90;;;;;;4993200;28;20418;-84
2022/11/28 12:25:48;;;;;;;7.03;4.43;;;5.40;99.90;;;;;;4993285;28;20760;-84
2022/11/28 12:28:19;;;;;;;10.90;5.67;;;5.40;99.90;;;;;;4993437;28;20415;-84
2022/11/28 12:31:00;;;;;;;9.70;6.40;;;5.40;99.90;;;;;;4993153;28;20470;-85
2022/11/28 12:33:51;;;;;;;11.40;5.83;;;5.30;99.90;;;;;;4974898;28;20423;-84
2022/11/28 12:36:59;;;;;;;10.67;4.97;;;5.30;99.90;;;;;;4990987;28;20431;-83
2022/11/28 12:39:34;;;;;;;6.60;4.90;;;5.30;99.90;;;;;;4992849;28;20482;-86
2022/11/28 12:42:08;;;;;;;10.27;5.93;;;5.30;99.90;;;;;;4959891;28;20948;-84
2022/11/28 12:45:11;;;;;;;10.63;4.37;;;5.20;99.90;;;;;;4975594;28;20431;-84
2022/11/28 12:47:52;;;;;;;11.43;5.40;;;5.20;99.90;;;;;;4992619;28;21016;-84
2022/11/28 12:50:29;;;;;;;7.50;5.27;;;5.20;99.90;;;;;;4993007;28;20522;-83
2022/11/28 12:53:15;;;;;;;9.70;5.77;;;5.20;99.90;;;;;;4975454;28;20849;-84
2022/11/28 12:55:56;;;;;;;8.33;5.37;;;5.20;99.90;;;;;;4988607;28;20463;-85
2022/11/28 12:58:31;;;;;;;8.73;4.57;;;5.20;99.90;;;;;;4993090;28;20463;-84
2022/11/28 13:01:14;;;;;;;10.80;3.80;;;5.20;99.90;;;;;;4992745;28;20426;-82
2022/11/28 13:03:48;;;;;;;7.33;3.87;;;5.20;99.90;;;;;;4993037;28;20464;-84
2022/11/28 13:06:29;;;;;;;11.80;6.37;;;5.10;99.90;;;;;;4992944;28;20988;-85
2022/11/28 13:09:27;;;;;;;6.50;5.23;;;5.10;99.90;;;;;;4975318;28;20416;-84
2022/11/28 13:12:21;;;;;;;7.77;4.23;;;5.00;99.90;;;;;;4928381;28;20431;-82
2022/11/28 13:14:55;;;;;;;7.47;4.37;;;5.00;99.90;;;;;;4996279;28;20419;-83
2022/11/28 13:17:38;;;;;;;9.47;4.73;;;5.00;99.90;;;;;;4995942;28;20519;-83
2022/11/28 13:20:22;;;;;;;9.03;5.93;;;5.00;99.90;;;;;;4996004;28;20418;-83
2022/11/28 13:23:18;;;;;;;13.30;5.10;;;5.00;99.90;;;;;;4996016;28;20840;-85
2022/11/28 13:26:00;;;;;;;8.30;4.67;;;5.00;99.90;;;;;;4995977;28;20411;-83